sensor_id;sensor_type;location;lat;lon;timestamp;P1;durP1;ratioP1;P2;durP2;ratioP2
39370;SDS011;25099;51.946;4.838;2023-11-18T00:01:14;21.70;;;15.90;;
39370;SDS011;25099;51.946;4.838;2023-11-18T00:03:40;27.17;;;14.93;;
39370;SDS011;25099;51.946;4.838;2023-11-18T00:06:05;25.67;;;16.08;;
39370;SDS011;25099;51.946;4.838;2023-11-18T00:08:32;25.95;;;15.63;;
39370;SDS011;25099;51.946;4.838;2023-11-18T00:10:58;23.35;;;15.93;;
39370;SDS011;25099;51.946;4.838;2023-11-18T00:13:24;20.95;;;14.88;;
39370;SDS011;25099;51.946;4.838;2023-11-18T00:15:51;24.60;;;15.40;;
39370;SDS011;25099;51.946;4.838;2023-11-18T00:18:17;27.90;;;15.43;;
39370;SDS011;25099;51.946;4.838;2023-11-18T00:20:44;24.65;;;15.02;;
39370;SDS011;25099;51.946;4.838;2023-11-18T00:23:09;24.83;;;15.45;;
39370;SDS011;25099;51.946;4.838;2023-11-18T00:25:36;22.27;;;14.88;;
39370;SDS011;25099;51.946;4.838;2023-11-18T00:28:04;22.85;;;14.38;;
39370;SDS011;25099;51.946;4.838;2023-11-18T00:30:32;22.27;;;15.43;;
39370;SDS011;25099;51.946;4.838;2023-11-18T00:32:58;18.02;;;14.05;;
39370;SDS011;25099;51.946;4.838;2023-11-18T00:35:23;21.33;;;14.65;;
39370;SDS011;25099;51.946;4.838;2023-11-18T00:37:49;23.30;;;14.93;;
39370;SDS011;25099;51.946;4.838;2023-11-18T00:40:15;23.13;;;15.40;;
39370;SDS011;25099;51.946;4.838;2023-11-18T00:42:43;24.23;;;15.50;;
39370;SDS011;25099;51.946;4.838;2023-11-18T00:45:09;24.48;;;15.18;;
39370;SDS011;25099;51.946;4.838;2023-11-18T00:47:37;26.83;;;14.10;;
39370;SDS011;25099;51.946;4.838;2023-11-18T00:50:03;21.67;;;13.68;;
39370;SDS011;25099;51.946;4.838;2023-11-18T00:52:33;21.67;;;14.02;;
39370;SDS011;25099;51.946;4.838;2023-11-18T00:54:59;27.42;;;14.88;;
39370;SDS011;25099;51.946;4.838;2023-11-18T00:57:24;16.48;;;13.60;;
39370;SDS011;25099;51.946;4.838;2023-11-18T00:59:50;20.38;;;13.85;;
39370;SDS011;25099;51.946;4.838;2023-11-18T01:02:15;18.75;;;12.88;;
39370;SDS011;25099;51.946;4.838;2023-11-18T01:04:43;20.17;;;14.23;;
39370;SDS011;25099;51.946;4.838;2023-11-18T01:07:10;16.38;;;13.00;;
39370;SDS011;25099;51.946;4.838;2023-11-18T01:09:37;16.42;;;12.93;;
39370;SDS011;25099;51.946;4.838;2023-11-18T01:12:03;23.10;;;13.93;;
39370;SDS011;25099;51.946;4.838;2023-11-18T01:14:30;21.90;;;13.68;;
39370;SDS011;25099;51.946;4.838;2023-11-18T01:16:56;20.73;;;13.93;;
39370;SDS011;25099;51.946;4.838;2023-11-18T01:19:22;33.38;;;13.48;;
39370;SDS011;25099;51.946;4.838;2023-11-18T01:21:48;21.75;;;12.40;;
39370;SDS011;25099;51.946;4.838;2023-11-18T01:24:14;21.02;;;13.35;;
39370;SDS011;25099;51.946;4.838;2023-11-18T01:26:41;22.27;;;12.65;;
39370;SDS011;25099;51.946;4.838;2023-11-18T01:29:07;19.42;;;13.52;;
39370;SDS011;25099;51.946;4.838;2023-11-18T01:31:32;21.85;;;13.75;;
39370;SDS011;25099;51.946;4.838;2023-11-18T01:33:58;20.48;;;12.57;;
39370;SDS011;25099;51.946;4.838;2023-11-18T01:36:24;20.52;;;12.60;;
39370;SDS011;25099;51.946;4.838;2023-11-18T01:38:50;21.42;;;12.88;;
39370;SDS011;25099;51.946;4.838;2023-11-18T01:41:16;20.20;;;12.38;;
39370;SDS011;25099;51.946;4.838;2023-11-18T01:43:45;20.80;;;12.05;;
39370;SDS011;25099;51.946;4.838;2023-11-18T01:46:11;22.52;;;12.70;;
39370;SDS011;25099;51.946;4.838;2023-11-18T01:48:38;22.55;;;13.10;;
39370;SDS011;25099;51.946;4.838;2023-11-18T01:51:05;19.10;;;12.60;;
39370;SDS011;25099;51.946;4.838;2023-11-18T01:53:32;23.33;;;13.95;;
39370;SDS011;25099;51.946;4.838;2023-11-18T01:56:00;22.88;;;12.98;;
39370;SDS011;25099;51.946;4.838;2023-11-18T01:58:27;23.58;;;14.35;;
39370;SDS011;25099;51.946;4.838;2023-11-18T02:00:55;25.10;;;13.15;;
39370;SDS011;25099;51.946;4.838;2023-11-18T02:03:21;18.40;;;12.15;;
39370;SDS011;25099;51.946;4.838;2023-11-18T02:05:47;18.38;;;12.75;;
39370;SDS011;25099;51.946;4.838;2023-11-18T02:08:13;24.25;;;12.65;;
39370;SDS011;25099;51.946;4.838;2023-11-18T02:10:43;25.15;;;11.90;;
39370;SDS011;25099;51.946;4.838;2023-11-18T02:13:16;18.85;;;12.20;;
39370;SDS011;25099;51.946;4.838;2023-11-18T02:15:50;21.70;;;12.57;;
39370;SDS011;25099;51.946;4.838;2023-11-18T02:18:18;19.10;;;12.30;;
39370;SDS011;25099;51.946;4.838;2023-11-18T02:20:45;16.85;;;11.52;;
39370;SDS011;25099;51.946;4.838;2023-11-18T02:23:12;17.83;;;11.90;;
39370;SDS011;25099;51.946;4.838;2023-11-18T02:25:42;21.05;;;11.80;;
39370;SDS011;25099;51.946;4.838;2023-11-18T02:28:09;22.63;;;13.48;;
39370;SDS011;25099;51.946;4.838;2023-11-18T02:30:35;21.63;;;12.13;;
39370;SDS011;25099;51.946;4.838;2023-11-18T02:33:04;19.15;;;11.77;;
39370;SDS011;25099;51.946;4.838;2023-11-18T02:35:52;21.30;;;12.65;;
39370;SDS011;25099;51.946;4.838;2023-11-18T02:38:23;18.70;;;12.25;;
39370;SDS011;25099;51.946;4.838;2023-11-18T02:41:02;15.52;;;12.27;;
39370;SDS011;25099;51.946;4.838;2023-11-18T02:43:33;19.25;;;12.88;;
39370;SDS011;25099;51.946;4.838;2023-11-18T02:46:03;18.33;;;13.27;;
39370;SDS011;25099;51.946;4.838;2023-11-18T02:48:29;22.55;;;13.48;;
39370;SDS011;25099;51.946;4.838;2023-11-18T02:50:57;18.63;;;13.65;;
39370;SDS011;25099;51.946;4.838;2023-11-18T02:53:23;20.58;;;13.85;;
39370;SDS011;25099;51.946;4.838;2023-11-18T02:55:49;21.92;;;14.05;;
39370;SDS011;25099;51.946;4.838;2023-11-18T02:58:17;22.50;;;13.52;;
39370;SDS011;25099;51.946;4.838;2023-11-18T03:00:43;21.50;;;14.45;;
39370;SDS011;25099;51.946;4.838;2023-11-18T03:03:09;20.70;;;14.02;;
39370;SDS011;25099;51.946;4.838;2023-11-18T03:05:35;18.92;;;14.13;;
39370;SDS011;25099;51.946;4.838;2023-11-18T03:08:01;26.65;;;15.27;;
39370;SDS011;25099;51.946;4.838;2023-11-18T03:10:31;24.77;;;14.73;;
39370;SDS011;25099;51.946;4.838;2023-11-18T03:13:00;23.48;;;14.32;;
39370;SDS011;25099;51.946;4.838;2023-11-18T03:15:26;17.85;;;14.13;;
39370;SDS011;25099;51.946;4.838;2023-11-18T03:17:53;24.50;;;15.27;;
39370;SDS011;25099;51.946;4.838;2023-11-18T03:20:19;21.73;;;15.65;;
39370;SDS011;25099;51.946;4.838;2023-11-18T03:22:48;19.80;;;15.65;;
39370;SDS011;25099;51.946;4.838;2023-11-18T03:25:17;21.50;;;15.30;;
39370;SDS011;25099;51.946;4.838;2023-11-18T03:27:46;20.23;;;14.98;;
39370;SDS011;25099;51.946;4.838;2023-11-18T03:30:12;18.75;;;14.52;;
39370;SDS011;25099;51.946;4.838;2023-11-18T03:32:39;22.17;;;15.80;;
39370;SDS011;25099;51.946;4.838;2023-11-18T03:35:06;19.73;;;15.07;;
39370;SDS011;25099;51.946;4.838;2023-11-18T03:37:33;20.45;;;14.73;;
39370;SDS011;25099;51.946;4.838;2023-11-18T03:39:59;32.15;;;17.05;;
39370;SDS011;25099;51.946;4.838;2023-11-18T03:42:25;21.27;;;15.25;;
39370;SDS011;25099;51.946;4.838;2023-11-18T03:44:52;20.35;;;15.27;;
39370;SDS011;25099;51.946;4.838;2023-11-18T03:47:18;19.88;;;15.88;;
39370;SDS011;25099;51.946;4.838;2023-11-18T03:49:43;26.15;;;16.52;;
39370;SDS011;25099;51.946;4.838;2023-11-18T03:52:09;22.05;;;15.80;;
39370;SDS011;25099;51.946;4.838;2023-11-18T03:54:34;23.70;;;16.52;;
39370;SDS011;25099;51.946;4.838;2023-11-18T03:57:00;28.60;;;17.58;;
39370;SDS011;25099;51.946;4.838;2023-11-18T03:59:25;30.83;;;17.45;;
39370;SDS011;25099;51.946;4.838;2023-11-18T04:01:51;29.02;;;16.35;;
39370;SDS011;25099;51.946;4.838;2023-11-18T04:04:17;33.00;;;18.10;;
39370;SDS011;25099;51.946;4.838;2023-11-18T04:06:42;22.67;;;16.77;;
39370;SDS011;25099;51.946;4.838;2023-11-18T04:09:09;27.45;;;16.95;;
39370;SDS011;25099;51.946;4.838;2023-11-18T04:11:35;29.95;;;17.13;;
39370;SDS011;25099;51.946;4.838;2023-11-18T04:14:01;23.00;;;15.85;;
39370;SDS011;25099;51.946;4.838;2023-11-18T04:16:28;25.27;;;16.73;;
39370;SDS011;25099;51.946;4.838;2023-11-18T04:18:54;27.40;;;16.58;;
39370;SDS011;25099;51.946;4.838;2023-11-18T04:21:20;30.05;;;16.90;;
39370;SDS011;25099;51.946;4.838;2023-11-18T04:23:47;30.35;;;17.55;;
39370;SDS011;25099;51.946;4.838;2023-11-18T04:26:13;27.33;;;16.67;;
39370;SDS011;25099;51.946;4.838;2023-11-18T04:28:39;23.17;;;15.98;;
39370;SDS011;25099;51.946;4.838;2023-11-18T04:31:04;23.80;;;16.45;;
39370;SDS011;25099;51.946;4.838;2023-11-18T04:33:30;25.70;;;17.17;;
39370;SDS011;25099;51.946;4.838;2023-11-18T04:35:57;28.13;;;16.02;;
39370;SDS011;25099;51.946;4.838;2023-11-18T04:38:23;26.70;;;17.38;;
39370;SDS011;25099;51.946;4.838;2023-11-18T04:40:50;24.00;;;16.75;;
39370;SDS011;25099;51.946;4.838;2023-11-18T04:43:15;25.92;;;16.65;;
39370;SDS011;25099;51.946;4.838;2023-11-18T04:45:44;25.88;;;16.77;;
39370;SDS011;25099;51.946;4.838;2023-11-18T04:48:09;23.10;;;16.02;;
39370;SDS011;25099;51.946;4.838;2023-11-18T04:50:35;24.85;;;16.52;;
39370;SDS011;25099;51.946;4.838;2023-11-18T04:53:01;23.40;;;15.93;;
39370;SDS011;25099;51.946;4.838;2023-11-18T04:55:28;23.10;;;16.27;;
39370;SDS011;25099;51.946;4.838;2023-11-18T04:57:54;28.75;;;16.38;;
39370;SDS011;25099;51.946;4.838;2023-11-18T05:00:20;25.30;;;16.15;;
39370;SDS011;25099;51.946;4.838;2023-11-18T05:02:46;27.10;;;15.95;;
39370;SDS011;25099;51.946;4.838;2023-11-18T05:05:13;26.27;;;17.17;;
39370;SDS011;25099;51.946;4.838;2023-11-18T05:07:40;22.17;;;15.38;;
39370;SDS011;25099;51.946;4.838;2023-11-18T05:10:05;24.80;;;15.25;;
39370;SDS011;25099;51.946;4.838;2023-11-18T05:12:38;21.33;;;14.55;;
39370;SDS011;25099;51.946;4.838;2023-11-18T05:15:05;27.02;;;15.77;;
39370;SDS011;25099;51.946;4.838;2023-11-18T05:17:33;24.88;;;15.88;;
39370;SDS011;25099;51.946;4.838;2023-11-18T05:20:01;33.00;;;15.98;;
39370;SDS011;25099;51.946;4.838;2023-11-18T05:22:27;23.02;;;15.75;;
39370;SDS011;25099;51.946;4.838;2023-11-18T05:24:53;27.63;;;16.05;;
39370;SDS011;25099;51.946;4.838;2023-11-18T05:27:18;23.90;;;16.02;;
39370;SDS011;25099;51.946;4.838;2023-11-18T05:29:44;22.30;;;14.95;;
39370;SDS011;25099;51.946;4.838;2023-11-18T05:32:12;28.70;;;15.23;;
39370;SDS011;25099;51.946;4.838;2023-11-18T05:34:38;22.95;;;15.27;;
39370;SDS011;25099;51.946;4.838;2023-11-18T05:37:04;28.15;;;16.45;;
39370;SDS011;25099;51.946;4.838;2023-11-18T05:39:29;23.48;;;14.85;;
39370;SDS011;25099;51.946;4.838;2023-11-18T05:41:56;27.65;;;15.88;;
39370;SDS011;25099;51.946;4.838;2023-11-18T05:44:23;28.80;;;15.60;;
39370;SDS011;25099;51.946;4.838;2023-11-18T05:46:56;29.38;;;15.75;;
39370;SDS011;25099;51.946;4.838;2023-11-18T05:49:25;23.75;;;14.55;;
39370;SDS011;25099;51.946;4.838;2023-11-18T05:51:50;34.97;;;14.20;;
39370;SDS011;25099;51.946;4.838;2023-11-18T05:54:16;27.00;;;13.80;;
39370;SDS011;25099;51.946;4.838;2023-11-18T05:56:42;31.30;;;14.43;;
39370;SDS011;25099;51.946;4.838;2023-11-18T05:59:08;27.33;;;14.40;;
39370;SDS011;25099;51.946;4.838;2023-11-18T06:01:34;25.42;;;14.02;;
39370;SDS011;25099;51.946;4.838;2023-11-18T06:03:59;32.13;;;14.32;;
39370;SDS011;25099;51.946;4.838;2023-11-18T06:06:26;31.27;;;15.35;;
39370;SDS011;25099;51.946;4.838;2023-11-18T06:08:52;27.33;;;14.38;;
39370;SDS011;25099;51.946;4.838;2023-11-18T06:11:18;31.55;;;15.20;;
39370;SDS011;25099;51.946;4.838;2023-11-18T06:13:45;30.52;;;14.43;;
39370;SDS011;25099;51.946;4.838;2023-11-18T06:16:12;27.95;;;15.10;;
39370;SDS011;25099;51.946;4.838;2023-11-18T06:18:42;32.57;;;16.37;;
39370;SDS011;25099;51.946;4.838;2023-11-18T06:21:12;27.67;;;13.15;;
39370;SDS011;25099;51.946;4.838;2023-11-18T06:23:43;31.27;;;14.80;;
39370;SDS011;25099;51.946;4.838;2023-11-18T06:26:10;32.22;;;15.05;;
39370;SDS011;25099;51.946;4.838;2023-11-18T06:28:43;24.58;;;14.07;;
39370;SDS011;25099;51.946;4.838;2023-11-18T06:31:09;32.80;;;13.27;;
39370;SDS011;25099;51.946;4.838;2023-11-18T06:33:37;25.55;;;13.70;;
39370;SDS011;25099;51.946;4.838;2023-11-18T06:36:04;25.77;;;13.82;;
39370;SDS011;25099;51.946;4.838;2023-11-18T06:38:30;28.23;;;13.85;;
39370;SDS011;25099;51.946;4.838;2023-11-18T06:40:56;25.58;;;14.38;;
39370;SDS011;25099;51.946;4.838;2023-11-18T06:43:24;27.65;;;12.90;;
39370;SDS011;25099;51.946;4.838;2023-11-18T06:45:50;25.90;;;13.52;;
39370;SDS011;25099;51.946;4.838;2023-11-18T06:48:16;22.55;;;11.90;;
39370;SDS011;25099;51.946;4.838;2023-11-18T06:50:45;24.55;;;12.27;;
39370;SDS011;25099;51.946;4.838;2023-11-18T06:53:11;23.25;;;11.18;;
39370;SDS011;25099;51.946;4.838;2023-11-18T06:55:37;29.23;;;12.57;;
39370;SDS011;25099;51.946;4.838;2023-11-18T06:58:02;26.88;;;13.15;;
39370;SDS011;25099;51.946;4.838;2023-11-18T07:00:28;26.45;;;12.85;;
39370;SDS011;25099;51.946;4.838;2023-11-18T07:02:54;24.20;;;11.77;;
39370;SDS011;25099;51.946;4.838;2023-11-18T07:05:20;23.25;;;12.73;;
39370;SDS011;25099;51.946;4.838;2023-11-18T07:07:49;27.48;;;12.63;;
39370;SDS011;25099;51.946;4.838;2023-11-18T07:10:15;24.17;;;12.25;;
39370;SDS011;25099;51.946;4.838;2023-11-18T07:12:43;21.20;;;11.77;;
39370;SDS011;25099;51.946;4.838;2023-11-18T07:15:09;27.00;;;11.50;;
39370;SDS011;25099;51.946;4.838;2023-11-18T07:17:35;22.17;;;11.85;;
39370;SDS011;25099;51.946;4.838;2023-11-18T07:20:01;18.40;;;11.38;;
39370;SDS011;25099;51.946;4.838;2023-11-18T07:22:27;24.08;;;10.90;;
39370;SDS011;25099;51.946;4.838;2023-11-18T07:24:54;23.60;;;11.45;;
39370;SDS011;25099;51.946;4.838;2023-11-18T07:27:19;15.73;;;10.52;;
39370;SDS011;25099;51.946;4.838;2023-11-18T07:29:45;15.90;;;10.60;;
39370;SDS011;25099;51.946;4.838;2023-11-18T07:32:10;16.35;;;10.93;;
39370;SDS011;25099;51.946;4.838;2023-11-18T07:34:36;19.83;;;11.05;;
39370;SDS011;25099;51.946;4.838;2023-11-18T07:37:03;22.13;;;10.05;;
39370;SDS011;25099;51.946;4.838;2023-11-18T07:39:28;31.20;;;10.63;;
39370;SDS011;25099;51.946;4.838;2023-11-18T07:42:09;16.58;;;10.60;;
39370;SDS011;25099;51.946;4.838;2023-11-18T07:44:36;19.05;;;9.90;;
39370;SDS011;25099;51.946;4.838;2023-11-18T07:47:03;17.70;;;10.32;;
39370;SDS011;25099;51.946;4.838;2023-11-18T07:49:30;22.50;;;10.07;;
39370;SDS011;25099;51.946;4.838;2023-11-18T07:51:56;30.25;;;11.25;;
39370;SDS011;25099;51.946;4.838;2023-11-18T07:54:22;18.92;;;10.07;;
39370;SDS011;25099;51.946;4.838;2023-11-18T07:56:48;22.38;;;10.10;;
39370;SDS011;25099;51.946;4.838;2023-11-18T07:59:14;15.98;;;9.32;;
39370;SDS011;25099;51.946;4.838;2023-11-18T08:01:43;19.15;;;8.77;;
39370;SDS011;25099;51.946;4.838;2023-11-18T08:04:09;21.92;;;9.52;;
39370;SDS011;25099;51.946;4.838;2023-11-18T08:06:35;13.48;;;8.35;;
39370;SDS011;25099;51.946;4.838;2023-11-18T08:09:00;16.27;;;8.80;;
39370;SDS011;25099;51.946;4.838;2023-11-18T08:11:27;20.40;;;9.27;;
39370;SDS011;25099;51.946;4.838;2023-11-18T08:13:54;14.85;;;8.85;;
39370;SDS011;25099;51.946;4.838;2023-11-18T08:16:20;19.25;;;8.65;;
39370;SDS011;25099;51.946;4.838;2023-11-18T08:18:47;16.45;;;8.05;;
39370;SDS011;25099;51.946;4.838;2023-11-18T08:21:12;10.65;;;7.68;;
39370;SDS011;25099;51.946;4.838;2023-11-18T08:23:38;23.45;;;9.55;;
39370;SDS011;25099;51.946;4.838;2023-11-18T08:26:05;18.58;;;8.73;;
39370;SDS011;25099;51.946;4.838;2023-11-18T08:28:30;15.70;;;7.75;;
39370;SDS011;25099;51.946;4.838;2023-11-18T08:30:56;23.65;;;7.57;;
39370;SDS011;25099;51.946;4.838;2023-11-18T08:33:22;15.35;;;7.50;;
39370;SDS011;25099;51.946;4.838;2023-11-18T08:35:50;17.58;;;7.65;;
39370;SDS011;25099;51.946;4.838;2023-11-18T08:38:16;16.95;;;8.32;;
39370;SDS011;25099;51.946;4.838;2023-11-18T08:40:42;13.65;;;7.22;;
39370;SDS011;25099;51.946;4.838;2023-11-18T08:43:10;12.40;;;7.47;;
39370;SDS011;25099;51.946;4.838;2023-11-18T08:45:36;21.08;;;7.28;;
39370;SDS011;25099;51.946;4.838;2023-11-18T08:48:03;18.38;;;8.02;;
39370;SDS011;25099;51.946;4.838;2023-11-18T08:50:36;23.08;;;8.18;;
39370;SDS011;25099;51.946;4.838;2023-11-18T08:53:04;14.07;;;7.10;;
39370;SDS011;25099;51.946;4.838;2023-11-18T08:55:31;16.63;;;6.75;;
39370;SDS011;25099;51.946;4.838;2023-11-18T08:58:15;17.50;;;7.43;;
39370;SDS011;25099;51.946;4.838;2023-11-18T09:00:51;17.42;;;6.95;;
39370;SDS011;25099;51.946;4.838;2023-11-18T09:03:30;13.05;;;6.78;;
39370;SDS011;25099;51.946;4.838;2023-11-18T09:06:05;11.50;;;6.53;;
39370;SDS011;25099;51.946;4.838;2023-11-18T09:08:42;15.82;;;7.18;;
39370;SDS011;25099;51.946;4.838;2023-11-18T09:11:08;14.05;;;6.53;;
39370;SDS011;25099;51.946;4.838;2023-11-18T09:13:37;10.02;;;6.68;;
39370;SDS011;25099;51.946;4.838;2023-11-18T09:16:05;13.20;;;5.50;;
39370;SDS011;25099;51.946;4.838;2023-11-18T09:21:01;12.38;;;5.70;;
39370;SDS011;25099;51.946;4.838;2023-11-18T09:23:28;17.33;;;6.97;;
39370;SDS011;25099;51.946;4.838;2023-11-18T09:25:56;14.75;;;5.80;;
39370;SDS011;25099;51.946;4.838;2023-11-18T09:28:26;13.52;;;5.85;;
39370;SDS011;25099;51.946;4.838;2023-11-18T09:30:55;12.07;;;5.88;;
39370;SDS011;25099;51.946;4.838;2023-11-18T09:33:26;23.40;;;6.22;;
39370;SDS011;25099;51.946;4.838;2023-11-18T09:36:04;10.85;;;5.07;;
39370;SDS011;25099;51.946;4.838;2023-11-18T09:38:34;12.73;;;5.60;;
39370;SDS011;25099;51.946;4.838;2023-11-18T09:41:05;9.95;;;4.72;;
39370;SDS011;25099;51.946;4.838;2023-11-18T09:43:43;15.15;;;5.93;;
39370;SDS011;25099;51.946;4.838;2023-11-18T09:46:30;14.23;;;6.00;;
39370;SDS011;25099;51.946;4.838;2023-11-18T09:51:50;12.57;;;5.22;;
39370;SDS011;25099;51.946;4.838;2023-11-18T10:02:51;16.20;;;4.68;;
39370;SDS011;25099;51.946;4.838;2023-11-18T10:05:17;13.45;;;4.82;;
39370;SDS011;25099;51.946;4.838;2023-11-18T10:07:47;13.00;;;4.78;;
39370;SDS011;25099;51.946;4.838;2023-11-18T10:10:13;18.73;;;4.38;;
39370;SDS011;25099;51.946;4.838;2023-11-18T10:12:43;13.70;;;5.00;;
39370;SDS011;25099;51.946;4.838;2023-11-18T10:15:17;15.25;;;5.43;;
39370;SDS011;25099;51.946;4.838;2023-11-18T10:17:44;13.80;;;6.25;;
39370;SDS011;25099;51.946;4.838;2023-11-18T10:23:10;13.60;;;5.80;;
39370;SDS011;25099;51.946;4.838;2023-11-18T10:25:41;10.68;;;5.78;;
39370;SDS011;25099;51.946;4.838;2023-11-18T10:28:33;14.98;;;6.78;;
39370;SDS011;25099;51.946;4.838;2023-11-18T10:31:03;17.42;;;7.22;;
39370;SDS011;25099;51.946;4.838;2023-11-18T10:33:34;16.30;;;8.68;;
39370;SDS011;25099;51.946;4.838;2023-11-18T10:36:02;8.40;;;5.40;;
39370;SDS011;25099;51.946;4.838;2023-11-18T10:38:32;7.60;;;3.80;;
39370;SDS011;25099;51.946;4.838;2023-11-18T10:41:14;8.65;;;3.70;;
39370;SDS011;25099;51.946;4.838;2023-11-18T10:43:41;7.05;;;3.85;;
39370;SDS011;25099;51.946;4.838;2023-11-18T10:46:09;11.70;;;3.88;;
39370;SDS011;25099;51.946;4.838;2023-11-18T10:48:42;11.55;;;4.55;;
39370;SDS011;25099;51.946;4.838;2023-11-18T10:51:09;4.95;;;3.42;;
39370;SDS011;25099;51.946;4.838;2023-11-18T10:53:37;12.32;;;5.10;;
39370;SDS011;25099;51.946;4.838;2023-11-18T10:56:04;8.00;;;3.67;;
39370;SDS011;25099;51.946;4.838;2023-11-18T10:58:36;9.10;;;3.50;;
39370;SDS011;25099;51.946;4.838;2023-11-18T11:01:06;6.32;;;3.78;;
39370;SDS011;25099;51.946;4.838;2023-11-18T11:03:46;10.73;;;4.00;;
39370;SDS011;25099;51.946;4.838;2023-11-18T11:06:21;8.38;;;4.47;;
39370;SDS011;25099;51.946;4.838;2023-11-18T11:08:51;18.33;;;4.00;;
39370;SDS011;25099;51.946;4.838;2023-11-18T11:11:19;6.60;;;3.55;;
39370;SDS011;25099;51.946;4.838;2023-11-18T11:13:57;14.57;;;4.35;;
39370;SDS011;25099;51.946;4.838;2023-11-18T11:16:28;13.10;;;4.20;;
39370;SDS011;25099;51.946;4.838;2023-11-18T11:19:03;9.75;;;5.43;;
39370;SDS011;25099;51.946;4.838;2023-11-18T11:21:37;13.63;;;5.50;;
39370;SDS011;25099;51.946;4.838;2023-11-18T11:24:17;12.50;;;4.30;;
39370;SDS011;25099;51.946;4.838;2023-11-18T11:27:09;6.28;;;3.17;;
39370;SDS011;25099;51.946;4.838;2023-11-18T11:29:57;12.63;;;3.90;;
39370;SDS011;25099;51.946;4.838;2023-11-18T11:32:35;5.80;;;4.03;;
39370;SDS011;25099;51.946;4.838;2023-11-18T11:35:29;9.43;;;3.90;;
39370;SDS011;25099;51.946;4.838;2023-11-18T11:37:57;9.52;;;3.58;;
39370;SDS011;25099;51.946;4.838;2023-11-18T11:40:38;13.25;;;5.35;;
39370;SDS011;25099;51.946;4.838;2023-11-18T11:43:07;9.30;;;4.07;;
39370;SDS011;25099;51.946;4.838;2023-11-18T11:45:35;7.72;;;4.05;;
39370;SDS011;25099;51.946;4.838;2023-11-18T11:48:02;6.40;;;3.53;;
39370;SDS011;25099;51.946;4.838;2023-11-18T11:56:46;8.90;;;3.45;;
39370;SDS011;25099;51.946;4.838;2023-11-18T11:59:17;11.93;;;3.88;;
39370;SDS011;25099;51.946;4.838;2023-11-18T12:02:00;10.32;;;3.28;;
39370;SDS011;25099;51.946;4.838;2023-11-18T12:04:32;9.38;;;3.58;;
39370;SDS011;25099;51.946;4.838;2023-11-18T12:07:03;7.40;;;3.40;;
39370;SDS011;25099;51.946;4.838;2023-11-18T12:09:34;7.07;;;3.20;;
39370;SDS011;25099;51.946;4.838;2023-11-18T12:12:04;5.32;;;2.78;;
39370;SDS011;25099;51.946;4.838;2023-11-18T12:14:48;10.30;;;4.38;;
39370;SDS011;25099;51.946;4.838;2023-11-18T12:19:46;6.10;;;2.88;;
39370;SDS011;25099;51.946;4.838;2023-11-18T12:28:05;8.40;;;3.80;;
39370;SDS011;25099;51.946;4.838;2023-11-18T12:35:29;6.00;;;3.20;;
39370;SDS011;25099;51.946;4.838;2023-11-18T12:38:01;4.45;;;2.72;;
39370;SDS011;25099;51.946;4.838;2023-11-18T12:40:52;6.10;;;2.35;;
39370;SDS011;25099;51.946;4.838;2023-11-18T12:49:36;7.78;;;2.55;;
39370;SDS011;25099;51.946;4.838;2023-11-18T12:52:06;6.93;;;2.92;;
39370;SDS011;25099;51.946;4.838;2023-11-18T12:54:33;5.05;;;3.10;;
39370;SDS011;25099;51.946;4.838;2023-11-18T12:57:03;5.20;;;2.73;;
39370;SDS011;25099;51.946;4.838;2023-11-18T12:59:35;5.38;;;2.50;;
39370;SDS011;25099;51.946;4.838;2023-11-18T13:02:02;6.78;;;2.83;;
39370;SDS011;25099;51.946;4.838;2023-11-18T13:04:44;3.05;;;2.85;;
39370;SDS011;25099;51.946;4.838;2023-11-18T13:07:17;6.50;;;3.07;;
39370;SDS011;25099;51.946;4.838;2023-11-18T13:09:44;2.67;;;2.15;;
39370;SDS011;25099;51.946;4.838;2023-11-18T13:12:11;3.72;;;2.55;;
39370;SDS011;25099;51.946;4.838;2023-11-18T13:14:40;4.80;;;2.20;;
39370;SDS011;25099;51.946;4.838;2023-11-18T13:17:11;3.60;;;2.08;;
39370;SDS011;25099;51.946;4.838;2023-11-18T13:19:46;3.45;;;2.50;;
39370;SDS011;25099;51.946;4.838;2023-11-18T13:22:13;3.50;;;2.03;;
39370;SDS011;25099;51.946;4.838;2023-11-18T13:24:42;2.05;;;1.92;;
39370;SDS011;25099;51.946;4.838;2023-11-18T13:27:14;2.63;;;1.77;;
39370;SDS011;25099;51.946;4.838;2023-11-18T13:29:45;1.85;;;1.65;;
39370;SDS011;25099;51.946;4.838;2023-11-18T13:32:15;8.27;;;2.00;;
39370;SDS011;25099;51.946;4.838;2023-11-18T13:34:41;3.10;;;2.35;;
39370;SDS011;25099;51.946;4.838;2023-11-18T13:40:45;3.17;;;2.40;;
39370;SDS011;25099;51.946;4.838;2023-11-18T13:43:18;2.17;;;1.75;;
39370;SDS011;25099;51.946;4.838;2023-11-18T13:45:50;2.65;;;1.90;;
39370;SDS011;25099;51.946;4.838;2023-11-18T13:48:25;1.40;;;1.30;;
39370;SDS011;25099;51.946;4.838;2023-11-18T13:50:53;3.28;;;1.75;;
39370;SDS011;25099;51.946;4.838;2023-11-18T13:53:25;2.72;;;1.60;;
39370;SDS011;25099;51.946;4.838;2023-11-18T13:55:54;1.63;;;1.38;;
39370;SDS011;25099;51.946;4.838;2023-11-18T13:58:19;2.22;;;1.42;;
39370;SDS011;25099;51.946;4.838;2023-11-18T14:00:45;1.95;;;1.40;;
39370;SDS011;25099;51.946;4.838;2023-11-18T14:03:15;3.80;;;1.80;;
39370;SDS011;25099;51.946;4.838;2023-11-18T14:05:41;3.40;;;1.70;;
39370;SDS011;25099;51.946;4.838;2023-11-18T14:08:10;2.17;;;1.50;;
39370;SDS011;25099;51.946;4.838;2023-11-18T14:10:37;2.65;;;1.48;;
39370;SDS011;25099;51.946;4.838;2023-11-18T14:13:06;1.38;;;1.27;;
39370;SDS011;25099;51.946;4.838;2023-11-18T14:15:36;1.77;;;1.45;;
39370;SDS011;25099;51.946;4.838;2023-11-18T14:18:03;1.85;;;1.33;;
39370;SDS011;25099;51.946;4.838;2023-11-18T14:25:42;1.60;;;1.33;;
39370;SDS011;25099;51.946;4.838;2023-11-18T14:28:07;1.50;;;1.20;;
39370;SDS011;25099;51.946;4.838;2023-11-18T14:30:35;2.47;;;1.45;;
39370;SDS011;25099;51.946;4.838;2023-11-18T14:33:01;1.98;;;1.50;;
39370;SDS011;25099;51.946;4.838;2023-11-18T14:35:28;1.48;;;1.27;;
39370;SDS011;25099;51.946;4.838;2023-11-18T14:37:54;2.22;;;1.38;;
39370;SDS011;25099;51.946;4.838;2023-11-18T14:40:21;1.20;;;1.10;;
39370;SDS011;25099;51.946;4.838;2023-11-18T14:42:48;1.20;;;1.10;;
39370;SDS011;25099;51.946;4.838;2023-11-18T14:45:15;0.82;;;0.82;;
39370;SDS011;25099;51.946;4.838;2023-11-18T14:47:41;2.00;;;1.33;;
39370;SDS011;25099;51.946;4.838;2023-11-18T14:50:10;1.30;;;1.08;;
39370;SDS011;25099;51.946;4.838;2023-11-18T14:52:47;1.08;;;0.88;;
39370;SDS011;25099;51.946;4.838;2023-11-18T14:55:16;0.90;;;0.90;;
39370;SDS011;25099;51.946;4.838;2023-11-18T14:57:43;1.75;;;1.20;;
39370;SDS011;25099;51.946;4.838;2023-11-18T15:00:10;1.27;;;1.17;;
39370;SDS011;25099;51.946;4.838;2023-11-18T15:02:52;1.20;;;1.10;;
39370;SDS011;25099;51.946;4.838;2023-11-18T15:05:18;1.80;;;1.15;;
39370;SDS011;25099;51.946;4.838;2023-11-18T15:07:47;2.63;;;1.80;;
39370;SDS011;25099;51.946;4.838;2023-11-18T15:10:18;2.10;;;1.88;;
39370;SDS011;25099;51.946;4.838;2023-11-18T15:12:48;1.30;;;1.20;;
39370;SDS011;25099;51.946;4.838;2023-11-18T15:15:18;1.30;;;1.20;;
39370;SDS011;25099;51.946;4.838;2023-11-18T15:17:45;1.63;;;1.42;;
39370;SDS011;25099;51.946;4.838;2023-11-18T15:20:12;1.85;;;1.40;;
39370;SDS011;25099;51.946;4.838;2023-11-18T15:22:39;4.18;;;1.42;;
39370;SDS011;25099;51.946;4.838;2023-11-18T15:25:07;1.30;;;1.20;;
39370;SDS011;25099;51.946;4.838;2023-11-18T15:27:37;1.00;;;1.00;;
39370;SDS011;25099;51.946;4.838;2023-11-18T15:30:03;1.20;;;1.10;;